createdAt,value
2017-10-17T00:00:04.144Z,1017.28
2017-10-17T00:01:04.429Z,1017.29
2017-10-17T00:02:04.215Z,1017.30
2017-10-17T00:03:04.257Z,1017.33
2017-10-17T00:04:04.279Z,1017.34
2017-10-17T00:05:04.324Z,1017.32
2017-10-17T00:06:04.344Z,1017.36
2017-10-17T00:07:04.380Z,1017.33
2017-10-17T00:08:04.734Z,1017.30
2017-10-17T00:09:04.470Z,1017.29
2017-10-17T00:10:04.515Z,1017.30
2017-10-17T00:11:04.629Z,1017.31
2017-10-17T00:12:04.578Z,1017.30
2017-10-17T00:13:04.586Z,1017.32
2017-10-17T00:14:04.630Z,1017.29
2017-10-17T00:15:04.976Z,1017.26
2017-10-17T00:16:04.698Z,1017.28
2017-10-17T00:17:04.715Z,1017.26
2017-10-17T00:18:04.749Z,1017.24
2017-10-17T00:19:04.779Z,1017.25
2017-10-17T00:20:04.975Z,1017.27
2017-10-17T00:21:05.095Z,1017.27
2017-10-17T00:22:04.885Z,1017.23
2017-10-17T00:23:04.913Z,1017.25
2017-10-17T00:24:04.945Z,1017.25
2017-10-17T00:25:04.997Z,1017.26
2017-10-17T00:26:05.013Z,1017.25
2017-10-17T00:27:05.320Z,1017.28
2017-10-17T00:28:05.104Z,1017.21
2017-10-17T00:29:05.119Z,1017.22
2017-10-17T00:30:05.165Z,1017.21
2017-10-17T00:31:05.207Z,1017.24
2017-10-17T00:32:05.213Z,1017.22
2017-10-17T00:33:05.549Z,1017.23
2017-10-17T00:34:05.302Z,1017.23
2017-10-17T00:35:05.332Z,1017.20
2017-10-17T00:36:05.367Z,1017.17
2017-10-17T00:37:05.386Z,1017.22
2017-10-17T00:38:05.434Z,1017.19
2017-10-17T00:39:05.705Z,1017.22
2017-10-17T00:40:05.499Z,1017.19
2017-10-17T00:41:05.545Z,1017.23
2017-10-17T00:42:05.555Z,1017.24
2017-10-17T00:43:05.663Z,1017.21
2017-10-17T00:44:05.615Z,1017.21
2017-10-17T00:45:05.986Z,1017.21
2017-10-17T00:46:05.702Z,1017.19
2017-10-17T00:47:05.744Z,1017.21
2017-10-17T00:48:05.776Z,1017.22
2017-10-17T00:49:05.785Z,1017.23
2017-10-17T00:50:05.822Z,1017.20
2017-10-17T00:51:06.104Z,1017.19
2017-10-17T00:52:06.082Z,1017.19
2017-10-17T00:53:05.918Z,1017.17
2017-10-17T00:54:05.973Z,1017.20
2017-10-17T00:55:06.007Z,1017.18
2017-10-17T00:56:06.039Z,1017.19
2017-10-17T00:57:06.411Z,1017.14
2017-10-17T00:58:06.095Z,1017.15
2017-10-17T00:59:06.114Z,1017.14
2017-10-17T01:00:06.169Z,1017.14
2017-10-17T01:01:06.184Z,1017.17
2017-10-17T01:02:06.246Z,1017.17
2017-10-17T01:03:06.649Z,1017.17
2017-10-17T01:04:06.285Z,1017.17
2017-10-17T01:05:06.345Z,1017.15
2017-10-17T01:06:06.382Z,1017.20
2017-10-17T01:07:06.400Z,1017.17
2017-10-17T01:08:06.431Z,1017.17
2017-10-17T01:09:06.745Z,1017.15
2017-10-17T01:10:06.481Z,1017.21
2017-10-17T01:11:06.529Z,1017.25
2017-10-17T01:12:06.562Z,1017.25
2017-10-17T01:13:06.621Z,1017.30
2017-10-17T01:14:06.801Z,1017.27
2017-10-17T01:15:06.960Z,1017.26
2017-10-17T01:16:06.680Z,1017.29
2017-10-17T01:17:06.735Z,1017.29
2017-10-17T01:18:06.745Z,1017.24
2017-10-17T01:19:06.798Z,1017.25
2017-10-17T01:20:06.815Z,1017.29
2017-10-17T01:21:07.169Z,1017.27
2017-10-17T01:22:06.899Z,1017.29
2017-10-17T01:23:06.913Z,1017.26
2017-10-17T01:24:06.965Z,1017.27
2017-10-17T01:25:07.022Z,1017.27
2017-10-17T01:26:07.030Z,1017.28
2017-10-17T01:27:07.430Z,1017.27
2017-10-17T01:28:07.102Z,1017.25
2017-10-17T01:29:07.133Z,1017.28
2017-10-17T01:30:07.163Z,1017.29
2017-10-17T01:31:07.185Z,1017.26
2017-10-17T01:32:07.232Z,1017.30
2017-10-17T01:33:07.552Z,1017.28
2017-10-17T01:34:07.297Z,1017.30
2017-10-17T01:35:07.312Z,1017.27
2017-10-17T01:36:07.348Z,1017.29
2017-10-17T01:37:07.378Z,1017.30
2017-10-17T01:38:07.417Z,1017.30
2017-10-17T01:39:07.444Z,1017.26
2017-10-17T01:40:07.748Z,1017.28
2017-10-17T01:41:07.526Z,1017.29
2017-10-17T01:42:07.570Z,1017.27
2017-10-17T01:43:07.619Z,1017.27
2017-10-17T01:44:07.610Z,1017.24
2017-10-17T01:45:07.664Z,1017.28
2017-10-17T01:46:07.679Z,1017.31
2017-10-17T01:47:07.963Z,1017.29
2017-10-17T01:48:07.837Z,1017.31
2017-10-17T01:49:07.777Z,1017.31
2017-10-17T01:50:07.836Z,1017.34
2017-10-17T01:51:07.847Z,1017.32
2017-10-17T01:52:07.896Z,1017.33
2017-10-17T01:53:07.975Z,1017.34
2017-10-17T01:54:08.260Z,1017.36
2017-10-17T01:55:08.098Z,1017.32
2017-10-17T01:56:08.017Z,1017.31
2017-10-17T01:57:08.047Z,1017.34
2017-10-17T01:58:08.136Z,1017.33
2017-10-17T01:59:08.131Z,1017.29
2017-10-17T02:00:08.163Z,1017.30
2017-10-17T02:01:08.429Z,1017.30
2017-10-17T02:02:08.231Z,1017.30
2017-10-17T02:03:08.333Z,1017.32
2017-10-17T02:04:08.302Z,1017.30
2017-10-17T02:05:08.326Z,1017.28
2017-10-17T02:06:08.498Z,1017.32
2017-10-17T02:07:08.377Z,1017.32
2017-10-17T02:08:08.735Z,1017.31
2017-10-17T02:09:08.452Z,1017.32
2017-10-17T02:10:08.492Z,1017.30
2017-10-17T02:11:08.542Z,1017.31
2017-10-17T02:12:08.559Z,1017.31
2017-10-17T02:13:08.574Z,1017.28
2017-10-17T02:14:08.658Z,1017.33
2017-10-17T02:15:08.888Z,1017.27
2017-10-17T02:16:08.673Z,1017.28
2017-10-17T02:17:08.720Z,1017.26
2017-10-17T02:18:08.866Z,1017.27
2017-10-17T02:19:08.816Z,1017.24
2017-10-17T02:20:08.827Z,1017.28
2017-10-17T02:21:08.874Z,1017.26
2017-10-17T02:22:09.124Z,1017.23
2017-10-17T02:23:08.907Z,1017.25
2017-10-17T02:24:08.949Z,1017.28
2017-10-17T02:25:08.990Z,1017.29
2017-10-17T02:26:09.016Z,1017.26
2017-10-17T02:27:09.058Z,1017.31
2017-10-17T02:28:09.087Z,1017.25
2017-10-17T02:29:09.435Z,1017.27
2017-10-17T02:30:09.178Z,1017.28
2017-10-17T02:31:09.185Z,1017.29
2017-10-17T02:32:09.202Z,1017.32
2017-10-17T02:33:09.251Z,1017.37
2017-10-17T02:34:09.349Z,1017.36
2017-10-17T02:35:09.334Z,1017.36
2017-10-17T02:36:09.641Z,1017.38
2017-10-17T02:37:09.405Z,1017.37
2017-10-17T02:38:09.440Z,1017.37
2017-10-17T02:39:09.437Z,1017.38
2017-10-17T02:40:09.489Z,1017.36
2017-10-17T02:41:09.659Z,1017.37
2017-10-17T02:42:09.530Z,1017.42
2017-10-17T02:43:09.816Z,1017.44
2017-10-17T02:44:09.596Z,1017.44
2017-10-17T02:45:09.632Z,1017.38
2017-10-17T02:46:09.713Z,1017.43
2017-10-17T02:47:09.716Z,1017.45
2017-10-17T02:48:09.730Z,1017.43
2017-10-17T02:49:09.782Z,1017.45
2017-10-17T02:50:10.114Z,1017.41
2017-10-17T02:51:09.859Z,1017.42
2017-10-17T02:52:09.862Z,1017.45
2017-10-17T02:53:09.928Z,1017.41
2017-10-17T02:54:09.929Z,1017.40
2017-10-17T02:55:09.963Z,1017.40
2017-10-17T02:56:10.322Z,1017.41
2017-10-17T02:57:10.095Z,1017.42
2017-10-17T02:58:10.077Z,1017.42
2017-10-17T02:59:10.108Z,1017.43
2017-10-17T03:00:10.148Z,1017.41
2017-10-17T03:01:10.160Z,1017.39
2017-10-17T03:02:10.441Z,1017.39
2017-10-17T03:03:10.228Z,1017.39
2017-10-17T03:04:10.295Z,1017.40
2017-10-17T03:05:10.352Z,1017.41
2017-10-17T03:06:10.332Z,1017.41
2017-10-17T03:07:10.372Z,1017.38
2017-10-17T03:08:10.670Z,1017.39
2017-10-17T03:09:10.439Z,1017.42
2017-10-17T03:10:10.457Z,1017.43
2017-10-17T03:11:10.546Z,1017.41
2017-10-17T03:12:10.562Z,1017.40
2017-10-17T03:13:10.575Z,1017.45
2017-10-17T03:14:10.840Z,1017.45
2017-10-17T03:15:10.645Z,1017.45
2017-10-17T03:16:10.731Z,1017.48
2017-10-17T03:17:10.694Z,1017.45
2017-10-17T03:18:10.770Z,1017.47
2017-10-17T03:19:10.754Z,1017.46
2017-10-17T03:20:11.092Z,1017.47
2017-10-17T03:21:10.817Z,1017.43
2017-10-17T03:22:10.857Z,1017.49
2017-10-17T03:23:10.916Z,1017.48
2017-10-17T03:24:10.939Z,1017.49
2017-10-17T03:25:10.949Z,1017.50
2017-10-17T03:26:11.260Z,1017.48
2017-10-17T03:27:11.035Z,1017.45
2017-10-17T03:28:11.068Z,1017.49
2017-10-17T03:29:11.100Z,1017.50
2017-10-17T03:30:11.116Z,1017.51
2017-10-17T03:31:11.167Z,1017.52
2017-10-17T03:32:11.451Z,1017.52
2017-10-17T03:33:11.257Z,1017.51
2017-10-17T03:34:11.265Z,1017.54
2017-10-17T03:35:11.311Z,1017.49
2017-10-17T03:36:11.349Z,1017.51
2017-10-17T03:37:11.371Z,1017.53
2017-10-17T03:38:11.694Z,1017.55
2017-10-17T03:39:11.480Z,1017.56
2017-10-17T03:40:11.449Z,1017.56
2017-10-17T03:41:11.523Z,1017.57
2017-10-17T03:42:11.512Z,1017.56
2017-10-17T03:43:11.547Z,1017.53
2017-10-17T03:44:11.850Z,1017.55
2017-10-17T03:45:11.768Z,1017.60
2017-10-17T03:46:11.657Z,1017.60
2017-10-17T03:47:11.679Z,1017.65
2017-10-17T03:48:11.709Z,1017.62
2017-10-17T03:49:11.760Z,1017.61
2017-10-17T03:50:12.043Z,1017.59
2017-10-17T03:51:11.829Z,1017.57
2017-10-17T03:52:11.881Z,1017.57
2017-10-17T03:53:11.876Z,1017.57
2017-10-17T03:54:11.920Z,1017.54
2017-10-17T03:55:11.939Z,1017.55
2017-10-17T03:56:12.222Z,1017.60
2017-10-17T03:57:12.050Z,1017.60
2017-10-17T03:58:12.058Z,1017.63
2017-10-17T03:59:12.093Z,1017.63
2017-10-17T04:00:12.224Z,1017.66
2017-10-17T04:01:12.141Z,1017.62
2017-10-17T04:02:12.470Z,1017.60
2017-10-17T04:03:12.232Z,1017.67
2017-10-17T04:04:12.258Z,1017.64
2017-10-17T04:05:12.285Z,1017.64
2017-10-17T04:06:12.300Z,1017.69
2017-10-17T04:07:12.331Z,1017.69
2017-10-17T04:08:12.633Z,1017.71
2017-10-17T04:09:12.396Z,1017.66
2017-10-17T04:10:12.463Z,1017.68
2017-10-17T04:11:12.587Z,1017.69
2017-10-17T04:12:12.511Z,1017.71
2017-10-17T04:13:12.581Z,1017.76
2017-10-17T04:14:12.658Z,1017.77
2017-10-17T04:15:12.925Z,1017.74
2017-10-17T04:16:12.631Z,1017.74
2017-10-17T04:17:12.826Z,1017.76
2017-10-17T04:18:12.727Z,1017.72
2017-10-17T04:19:12.733Z,1017.68
2017-10-17T04:20:12.793Z,1017.72
2017-10-17T04:21:12.808Z,1017.71
2017-10-17T04:22:13.101Z,1017.74
2017-10-17T04:23:13.682Z,1017.73
2017-10-17T04:24:12.911Z,1017.73
2017-10-17T04:25:12.925Z,1017.71
2017-10-17T04:26:12.975Z,1017.71
2017-10-17T04:27:13.006Z,1017.70
2017-10-17T04:28:13.066Z,1017.71
2017-10-17T04:29:13.376Z,1017.76
2017-10-17T04:30:13.086Z,1017.70
2017-10-17T04:31:14.396Z,1017.76
2017-10-17T04:32:13.257Z,1017.78
2017-10-17T04:33:13.241Z,1017.74
2017-10-17T04:34:13.260Z,1017.82
2017-10-17T04:35:13.281Z,1017.77
2017-10-17T04:36:13.738Z,1017.82
2017-10-17T04:37:13.317Z,1017.86
2017-10-17T04:38:13.387Z,1017.85
2017-10-17T04:39:13.382Z,1017.86
2017-10-17T04:40:13.418Z,1017.83
2017-10-17T04:41:13.447Z,1017.85
2017-10-17T04:42:13.481Z,1017.83
2017-10-17T04:43:13.780Z,1017.86
2017-10-17T04:44:13.717Z,1017.84
2017-10-17T04:45:13.584Z,1017.86
2017-10-17T04:46:13.700Z,1017.87
2017-10-17T04:47:13.669Z,1017.85
2017-10-17T04:48:13.703Z,1017.87
2017-10-17T04:49:13.729Z,1017.90
2017-10-17T04:50:14.087Z,1017.91
2017-10-17T04:51:13.773Z,1017.87
2017-10-17T04:52:13.838Z,1017.90
2017-10-17T04:53:13.889Z,1017.90
2017-10-17T04:54:13.946Z,1017.93
2017-10-17T04:55:14.110Z,1017.89
2017-10-17T04:56:13.938Z,1017.87
2017-10-17T04:57:14.238Z,1017.88
2017-10-17T04:58:14.005Z,1017.85
2017-10-17T04:59:14.096Z,1017.89
2017-10-17T05:00:14.126Z,1017.89
2017-10-17T05:01:14.111Z,1017.87
2017-10-17T05:02:14.166Z,1017.92
2017-10-17T05:03:14.193Z,1017.97
2017-10-17T05:04:14.519Z,1017.95
2017-10-17T05:05:14.282Z,1017.90
2017-10-17T05:06:14.288Z,1017.90
2017-10-17T05:07:14.498Z,1017.94
2017-10-17T05:08:14.336Z,1017.93
2017-10-17T05:09:14.388Z,1017.89
2017-10-17T05:10:14.398Z,1017.91
2017-10-17T05:11:14.684Z,1017.94
2017-10-17T05:12:14.481Z,1017.91
2017-10-17T05:13:14.641Z,1017.90
2017-10-17T05:14:14.543Z,1017.90
2017-10-17T05:15:14.585Z,1017.89
2017-10-17T05:16:14.598Z,1017.89
2017-10-17T05:17:14.627Z,1017.92
2017-10-17T05:18:14.917Z,1017.91
2017-10-17T05:19:14.716Z,1017.93
2017-10-17T05:20:14.745Z,1017.91
2017-10-17T05:21:14.782Z,1017.96
2017-10-17T05:22:14.810Z,1017.91
2017-10-17T05:23:14.875Z,1017.91
2017-10-17T05:24:14.862Z,1017.92
2017-10-17T05:25:15.265Z,1017.90
2017-10-17T05:26:15.031Z,1017.92
2017-10-17T05:27:14.977Z,1017.94
2017-10-17T05:28:14.995Z,1017.93
2017-10-17T05:29:15.020Z,1017.94
2017-10-17T05:30:15.051Z,1017.98
2017-10-17T05:31:15.128Z,1017.98
2017-10-17T05:32:15.387Z,1017.95
2017-10-17T05:33:15.184Z,1017.92
2017-10-17T05:34:15.182Z,1017.94
2017-10-17T05:35:15.237Z,1017.97
2017-10-17T05:36:15.288Z,1017.98
2017-10-17T05:37:15.307Z,1018.00
2017-10-17T05:38:15.581Z,1017.99
2017-10-17T05:39:15.372Z,1017.99
2017-10-17T05:40:15.409Z,1018.02
2017-10-17T05:41:15.687Z,1018.03
2017-10-17T05:42:15.463Z,1018.04
2017-10-17T05:43:15.551Z,1017.99
2017-10-17T05:44:15.759Z,1017.99
2017-10-17T05:45:15.758Z,1018.02
2017-10-17T05:46:15.660Z,1018.01
2017-10-17T05:47:15.610Z,1018.01
2017-10-17T05:48:15.647Z,1018.05
2017-10-17T05:49:15.674Z,1018.06
2017-10-17T05:50:16.069Z,1018.06
2017-10-17T05:51:15.903Z,1018.08
2017-10-17T05:52:15.939Z,1018.10
2017-10-17T05:53:15.819Z,1018.13
2017-10-17T05:54:15.857Z,1018.11
2017-10-17T05:55:15.898Z,1018.15
2017-10-17T05:56:16.212Z,1018.15
2017-10-17T05:57:15.951Z,1018.12
2017-10-17T05:58:16.002Z,1018.14
2017-10-17T05:59:16.014Z,1018.14
2017-10-17T06:00:16.040Z,1018.17
2017-10-17T06:01:16.087Z,1018.15
2017-10-17T06:02:16.370Z,1018.15
2017-10-17T06:03:16.153Z,1018.15
2017-10-17T06:04:16.188Z,1018.14
2017-10-17T06:05:16.205Z,1018.12
2017-10-17T06:06:16.247Z,1018.16
2017-10-17T06:07:16.389Z,1018.16
2017-10-17T06:08:16.608Z,1018.20
2017-10-17T06:09:16.326Z,1018.20
2017-10-17T06:10:16.363Z,1018.20
2017-10-17T06:11:16.419Z,1018.20
2017-10-17T06:12:16.425Z,1018.23
2017-10-17T06:13:16.711Z,1018.27
2017-10-17T06:14:16.496Z,1018.24
2017-10-17T06:15:16.532Z,1018.25
2017-10-17T06:16:16.559Z,1018.28
2017-10-17T06:17:16.591Z,1018.27
2017-10-17T06:18:16.665Z,1018.27
2017-10-17T06:19:16.660Z,1018.31
2017-10-17T06:20:16.991Z,1018.32
2017-10-17T06:21:16.721Z,1018.36
2017-10-17T06:22:16.774Z,1018.36
2017-10-17T06:23:16.961Z,1018.35
2017-10-17T06:24:16.842Z,1018.38
2017-10-17T06:25:16.880Z,1018.39
2017-10-17T06:26:17.207Z,1018.38
2017-10-17T06:27:16.925Z,1018.36
2017-10-17T06:28:16.971Z,1018.36
2017-10-17T06:29:17.138Z,1018.39
2017-10-17T06:30:17.024Z,1018.42
2017-10-17T06:31:17.063Z,1018.38
2017-10-17T06:32:17.348Z,1018.36
2017-10-17T06:33:17.136Z,1018.43
2017-10-17T06:34:17.197Z,1018.41
2017-10-17T06:35:17.200Z,1018.35
2017-10-17T06:36:17.248Z,1018.36
2017-10-17T06:37:17.267Z,1018.39
2017-10-17T06:38:17.534Z,1018.40
2017-10-17T06:39:17.336Z,1018.39
2017-10-17T06:40:17.352Z,1018.43
2017-10-17T06:41:17.401Z,1018.44
2017-10-17T06:42:17.433Z,1018.46
2017-10-17T06:43:17.450Z,1018.49
2017-10-17T06:44:17.750Z,1018.48
2017-10-17T06:45:17.680Z,1018.49
2017-10-17T06:46:17.548Z,1018.52
2017-10-17T06:47:17.581Z,1018.47
2017-10-17T06:48:17.613Z,1018.46
2017-10-17T06:49:17.674Z,1018.44
2017-10-17T06:50:17.996Z,1018.43
2017-10-17T06:51:17.714Z,1018.46
2017-10-17T06:52:17.759Z,1018.46
2017-10-17T06:53:17.830Z,1018.53
2017-10-17T06:54:17.829Z,1018.49
2017-10-17T06:55:17.852Z,1018.50
2017-10-17T06:56:17.906Z,1018.46
2017-10-17T06:57:18.228Z,1018.48
2017-10-17T06:58:17.951Z,1018.48
2017-10-17T06:59:18.002Z,1018.47
2017-10-17T07:00:18.016Z,1018.50
2017-10-17T07:01:18.043Z,1018.47
2017-10-17T07:02:18.080Z,1018.47
2017-10-17T07:03:18.112Z,1018.52
2017-10-17T07:04:18.478Z,1018.54
2017-10-17T07:05:18.198Z,1018.52
2017-10-17T07:06:18.229Z,1018.54
2017-10-17T07:07:18.253Z,1018.56
2017-10-17T07:08:18.290Z,1018.55
2017-10-17T07:09:18.318Z,1018.55
2017-10-17T07:10:18.360Z,1018.54
2017-10-17T07:11:18.648Z,1018.51
2017-10-17T07:12:18.408Z,1018.52
2017-10-17T07:13:18.467Z,1018.53
2017-10-17T07:14:18.477Z,1018.54
2017-10-17T07:15:18.510Z,1018.55
2017-10-17T07:16:18.562Z,1018.57
2017-10-17T07:17:18.596Z,1018.56
2017-10-17T07:18:18.875Z,1018.52
2017-10-17T07:19:18.812Z,1018.50
2017-10-17T07:20:18.742Z,1018.50
2017-10-17T07:21:18.735Z,1018.52
2017-10-17T07:22:18.740Z,1018.55
2017-10-17T07:23:18.792Z,1018.57
2017-10-17T07:24:18.810Z,1018.55
2017-10-17T07:25:19.152Z,1018.54
2017-10-17T07:26:18.875Z,1018.50
2017-10-17T07:27:18.910Z,1018.53
2017-10-17T07:28:18.950Z,1018.54
2017-10-17T07:29:18.977Z,1018.52
2017-10-17T07:30:19.126Z,1018.53
2017-10-17T07:31:19.040Z,1018.53
2017-10-17T07:32:19.347Z,1018.54
2017-10-17T07:33:19.108Z,1018.53
2017-10-17T07:34:19.149Z,1018.54
2017-10-17T07:35:19.172Z,1018.54
2017-10-17T07:36:19.222Z,1018.51
2017-10-17T07:37:19.245Z,1018.53
2017-10-17T07:38:19.304Z,1018.52
2017-10-17T07:39:19.576Z,1018.53
2017-10-17T07:40:19.388Z,1018.50
2017-10-17T07:41:19.372Z,1018.52
2017-10-17T07:42:19.407Z,1018.52
2017-10-17T07:43:19.460Z,1018.49
2017-10-17T07:44:19.490Z,1018.55
2017-10-17T07:45:19.559Z,1018.50
2017-10-17T07:46:19.790Z,1018.51
2017-10-17T07:47:19.603Z,1018.49
2017-10-17T07:48:19.609Z,1018.50
2017-10-17T07:49:19.658Z,1018.50
2017-10-17T07:50:19.674Z,1018.47
2017-10-17T07:51:19.779Z,1018.48
2017-10-17T07:52:19.883Z,1018.52
2017-10-17T07:53:20.096Z,1018.54
2017-10-17T07:54:19.808Z,1018.52
2017-10-17T07:55:19.960Z,1018.52
2017-10-17T07:56:19.891Z,1018.53
2017-10-17T07:57:19.929Z,1018.50
2017-10-17T07:58:19.957Z,1018.55
2017-10-17T07:59:20.246Z,1018.57
2017-10-17T08:00:20.035Z,1018.55
2017-10-17T08:01:20.114Z,1018.53
2017-10-17T08:02:20.085Z,1018.53
2017-10-17T08:03:20.118Z,1018.57
2017-10-17T08:04:20.165Z,1018.54
2017-10-17T08:05:20.202Z,1018.55
2017-10-17T08:06:20.527Z,1018.56
2017-10-17T08:07:20.261Z,1018.58
2017-10-17T08:08:20.296Z,1018.56
2017-10-17T08:09:20.312Z,1018.56
2017-10-17T08:10:20.388Z,1018.55
2017-10-17T08:11:20.505Z,1018.56
2017-10-17T08:12:20.709Z,1018.52
2017-10-17T08:13:20.463Z,1018.51
2017-10-17T08:14:20.506Z,1018.51
2017-10-17T08:15:20.511Z,1018.52
2017-10-17T08:16:20.559Z,1018.47
2017-10-17T08:17:20.593Z,1018.50
2017-10-17T08:18:20.623Z,1018.48
2017-10-17T08:19:20.967Z,1018.46
2017-10-17T08:20:20.721Z,1018.46
2017-10-17T08:21:20.750Z,1018.44
2017-10-17T08:22:20.989Z,1018.44
2017-10-17T08:23:20.882Z,1018.40
2017-10-17T08:24:20.835Z,1018.41
2017-10-17T08:25:21.098Z,1018.41
2017-10-17T08:26:20.886Z,1018.34
2017-10-17T08:27:20.921Z,1018.30
2017-10-17T08:28:20.948Z,1018.30
2017-10-17T08:29:20.996Z,1018.28
2017-10-17T08:30:21.016Z,1018.28
2017-10-17T08:31:21.342Z,1018.28
2017-10-17T08:32:21.096Z,1018.29
2017-10-17T08:33:21.142Z,1018.32
2017-10-17T08:34:21.165Z,1018.30
2017-10-17T08:35:21.180Z,1018.27
2017-10-17T08:36:21.298Z,1018.27
2017-10-17T08:37:21.511Z,1018.26
2017-10-17T08:38:21.306Z,1018.34
2017-10-17T08:39:21.343Z,1018.24
2017-10-17T08:40:21.367Z,1018.21
2017-10-17T08:41:21.403Z,1018.23
2017-10-17T08:42:21.419Z,1018.26
2017-10-17T08:43:21.701Z,1018.28
2017-10-17T08:44:21.535Z,1018.33
2017-10-17T08:45:21.555Z,1018.27
2017-10-17T08:46:21.570Z,1018.20
2017-10-17T08:47:21.614Z,1018.19
2017-10-17T08:48:21.655Z,1018.20
2017-10-17T08:49:21.977Z,1018.23
2017-10-17T08:50:21.703Z,1018.25
2017-10-17T08:51:21.719Z,1018.26
2017-10-17T08:52:21.769Z,1018.23
2017-10-17T08:53:21.787Z,1018.24
2017-10-17T08:54:21.842Z,1018.24
2017-10-17T08:55:22.113Z,1018.23
2017-10-17T08:56:21.928Z,1018.23
2017-10-17T08:57:22.406Z,1018.21
2017-10-17T08:58:21.961Z,1018.20
2017-10-17T08:59:22.066Z,1018.13
2017-10-17T09:00:22.052Z,1018.11
2017-10-17T09:01:22.068Z,1018.15
2017-10-17T09:02:22.410Z,1018.15
2017-10-17T09:03:22.131Z,1018.13
2017-10-17T09:04:22.278Z,1018.16
2017-10-17T09:05:22.234Z,1018.22
2017-10-17T09:06:22.280Z,1018.16
2017-10-17T09:07:22.278Z,1018.19
2017-10-17T09:08:22.601Z,1018.18
2017-10-17T09:09:22.326Z,1018.19
2017-10-17T09:10:22.481Z,1018.18
2017-10-17T09:11:22.426Z,1018.22
2017-10-17T09:12:22.436Z,1018.23
2017-10-17T09:13:22.480Z,1018.25
2017-10-17T09:14:22.533Z,1018.23
2017-10-17T09:15:22.799Z,1018.24
2017-10-17T09:16:22.581Z,1018.25
2017-10-17T09:17:22.608Z,1018.25
2017-10-17T09:18:22.647Z,1018.24
2017-10-17T09:19:22.683Z,1018.20
2017-10-17T09:20:22.717Z,1018.16
2017-10-17T09:21:23.132Z,1018.22
2017-10-17T09:22:22.766Z,1018.29
2017-10-17T09:23:22.804Z,1018.28
2017-10-17T09:24:22.840Z,1018.19
2017-10-17T09:25:22.873Z,1018.21
2017-10-17T09:26:22.934Z,1018.20
2017-10-17T09:27:23.251Z,1018.19
2017-10-17T09:28:22.988Z,1018.23
2017-10-17T09:29:23.005Z,1018.22
2017-10-17T09:30:23.055Z,1018.20
2017-10-17T09:31:23.093Z,1018.23
2017-10-17T09:32:23.137Z,1018.21
2017-10-17T09:33:23.422Z,1018.22
2017-10-17T09:34:23.195Z,1018.21
2017-10-17T09:35:23.229Z,1018.20
2017-10-17T09:36:23.247Z,1018.20
2017-10-17T09:37:23.321Z,1018.20
2017-10-17T09:38:23.320Z,1018.22
2017-10-17T09:39:23.347Z,1018.17
2017-10-17T09:40:23.639Z,1018.20
2017-10-17T09:41:23.447Z,1018.17
2017-10-17T09:42:23.453Z,1018.13
2017-10-17T09:43:23.501Z,1018.12
2017-10-17T09:44:23.533Z,1018.16
2017-10-17T09:45:23.588Z,1018.19
2017-10-17T09:46:23.899Z,1018.18
2017-10-17T09:47:23.624Z,1018.17
2017-10-17T09:48:23.671Z,1018.15
2017-10-17T09:49:23.705Z,1018.14
2017-10-17T09:50:23.737Z,1018.13
2017-10-17T09:51:23.753Z,1018.06
2017-10-17T09:52:23.835Z,1018.10
2017-10-17T09:53:24.144Z,1018.12
2017-10-17T09:54:23.856Z,1018.14
2017-10-17T09:55:23.916Z,1018.13
2017-10-17T09:56:23.927Z,1018.12
2017-10-17T09:57:23.995Z,1018.16
2017-10-17T09:58:23.994Z,1018.12
2017-10-17T09:59:24.488Z,1018.13
2017-10-17T10:00:24.071Z,1018.12
2017-10-17T10:01:24.096Z,1018.10
2017-10-17T10:02:24.162Z,1018.10
2017-10-17T10:03:24.173Z,1018.08
2017-10-17T10:04:24.218Z,1018.06
2017-10-17T10:05:24.531Z,1018.04
2017-10-17T10:06:24.278Z,1018.02
2017-10-17T10:07:24.324Z,1018.02
2017-10-17T10:08:24.353Z,1017.98
2017-10-17T10:09:24.368Z,1018.04
2017-10-17T10:10:24.410Z,1018.02
2017-10-17T10:11:24.704Z,1018.02
2017-10-17T10:14:24.721Z,1018.05
2017-10-17T10:15:24.626Z,1018.03
2017-10-17T10:16:24.627Z,1018.03
2017-10-17T10:17:24.896Z,1018.01
2017-10-17T10:18:24.729Z,1018.01
2017-10-17T10:19:24.717Z,1017.99
2017-10-17T10:20:24.746Z,1018.03
2017-10-17T10:21:24.851Z,1017.98
2017-10-17T10:22:24.839Z,1018.03
2017-10-17T10:23:25.116Z,1018.02
2017-10-17T10:24:24.902Z,1018.04
2017-10-17T10:25:24.934Z,1018.05
2017-10-17T10:26:24.972Z,1018.01
2017-10-17T10:27:25.106Z,1018.00
2017-10-17T10:28:25.055Z,1018.03
2017-10-17T10:29:25.308Z,1017.98
2017-10-17T10:30:25.108Z,1017.97
2017-10-17T10:31:25.150Z,1017.92
2017-10-17T10:32:25.234Z,1017.93
2017-10-17T10:33:25.251Z,1017.95
2017-10-17T10:34:25.248Z,1017.92
2017-10-17T10:35:25.570Z,1017.90
2017-10-17T10:36:25.302Z,1017.90
2017-10-17T10:37:25.354Z,1017.85
2017-10-17T10:38:25.382Z,1017.85
2017-10-17T10:39:25.417Z,1017.84
2017-10-17T10:40:25.455Z,1017.83
2017-10-17T10:41:26.009Z,1017.85
2017-10-17T10:42:25.528Z,1017.81
2017-10-17T10:43:25.546Z,1017.82
2017-10-17T10:44:25.589Z,1017.82
2017-10-17T10:45:25.610Z,1017.84
2017-10-17T10:46:25.660Z,1017.84
2017-10-17T10:47:25.979Z,1017.79
2017-10-17T10:48:25.736Z,1017.84
2017-10-17T10:49:25.746Z,1017.79
2017-10-17T10:50:25.783Z,1017.79
2017-10-17T10:51:25.864Z,1017.76
2017-10-17T10:52:25.872Z,1017.76
2017-10-17T10:53:26.159Z,1017.74
2017-10-17T10:54:25.928Z,1017.74
2017-10-17T10:55:25.971Z,1017.72
2017-10-17T10:56:25.998Z,1017.73
2017-10-17T10:57:26.042Z,1017.71
2017-10-17T10:58:26.080Z,1017.74
2017-10-17T10:59:26.428Z,1017.70
2017-10-17T11:00:26.160Z,1017.68
2017-10-17T11:01:26.194Z,1017.67
2017-10-17T11:02:26.217Z,1017.67
2017-10-17T11:03:26.257Z,1017.68
2017-10-17T11:04:26.294Z,1017.61
2017-10-17T11:05:26.646Z,1017.63
2017-10-17T11:06:26.487Z,1017.66
2017-10-17T11:07:26.385Z,1017.64
2017-10-17T11:08:26.434Z,1017.63
2017-10-17T11:09:26.506Z,1017.61
2017-10-17T11:10:26.476Z,1017.58
2017-10-17T11:11:26.817Z,1017.62
2017-10-17T11:12:26.571Z,1017.62
2017-10-17T11:13:26.631Z,1017.57
2017-10-17T11:14:26.680Z,1017.55
2017-10-17T11:15:26.670Z,1017.56
2017-10-17T11:16:26.704Z,1017.50
2017-10-17T11:17:27.059Z,1017.49
2017-10-17T11:18:26.762Z,1017.49
2017-10-17T11:19:26.811Z,1017.47
2017-10-17T11:20:26.837Z,1017.50
2017-10-17T11:21:26.930Z,1017.45
2017-10-17T11:22:27.112Z,1017.48
2017-10-17T11:23:27.283Z,1017.44
2017-10-17T11:24:27.066Z,1017.45
2017-10-17T11:25:27.562Z,1017.42
2017-10-17T11:26:27.106Z,1017.42
2017-10-17T11:27:27.182Z,1017.40
2017-10-17T11:28:27.615Z,1017.37
2017-10-17T11:29:27.472Z,1017.36
2017-10-17T11:30:27.374Z,1017.31
2017-10-17T11:31:27.226Z,1017.29
2017-10-17T11:32:27.412Z,1017.28
2017-10-17T11:33:27.792Z,1017.25
2017-10-17T11:34:27.468Z,1017.24
2017-10-17T11:35:27.653Z,1017.25
2017-10-17T11:36:27.446Z,1017.20
2017-10-17T11:37:27.543Z,1017.20
2017-10-17T11:38:27.485Z,1017.19
2017-10-17T11:39:28.246Z,1017.13
2017-10-17T11:40:27.913Z,1017.17
2017-10-17T11:41:28.041Z,1017.12
2017-10-17T11:42:28.148Z,1017.14
2017-10-17T11:43:27.644Z,1017.15
2017-10-17T11:44:27.720Z,1017.16
2017-10-17T11:45:27.742Z,1017.10
2017-10-17T11:46:27.932Z,1017.08
2017-10-17T11:47:28.091Z,1017.08
2017-10-17T11:48:27.892Z,1017.06
2017-10-17T11:49:27.845Z,1017.05
2017-10-17T11:50:27.902Z,1017.08
2017-10-17T11:51:27.912Z,1017.05
2017-10-17T11:52:27.971Z,1017.03
2017-10-17T11:53:28.299Z,1017.02
2017-10-17T11:54:28.020Z,1017.06
2017-10-17T11:55:28.106Z,1017.06
2017-10-17T11:56:28.112Z,1017.03
2017-10-17T11:57:28.128Z,1017.08
2017-10-17T11:58:28.285Z,1017.09
2017-10-17T11:59:28.514Z,1017.06
2017-10-17T12:00:28.252Z,1017.04
2017-10-17T12:01:28.329Z,1017.06
2017-10-17T12:02:28.325Z,1017.02
2017-10-17T12:03:28.342Z,1017.00
2017-10-17T12:04:28.369Z,1016.95
2017-10-17T12:05:28.707Z,1016.96
2017-10-17T12:06:28.475Z,1016.90
2017-10-17T12:07:28.495Z,1016.88